createdAt,value
2022-07-26T00:02:21.431Z,18.92
2022-07-26T00:04:47.914Z,18.85
2022-07-26T00:07:14.406Z,18.85
2022-07-26T00:09:44.977Z,18.83
2022-07-26T00:14:40.564Z,18.79
2022-07-26T00:17:08.082Z,18.76
2022-07-26T00:19:34.446Z,18.70
2022-07-26T00:22:19.505Z,18.58
2022-07-26T00:24:45.884Z,18.69
2022-07-26T00:27:12.271Z,18.63
2022-07-26T00:29:38.624Z,18.64
2022-07-26T00:34:31.685Z,18.36
2022-07-26T00:36:58.054Z,18.46
2022-07-26T00:39:24.539Z,18.22
2022-07-26T00:41:51.159Z,18.32
2022-07-26T00:44:17.552Z,18.27
2022-07-26T00:46:44.474Z,18.24
2022-07-26T00:51:38.705Z,18.14
2022-07-26T00:54:06.188Z,18.19
2022-07-26T00:59:00.957Z,18.12
2022-07-26T01:01:27.368Z,18.24
2022-07-26T01:03:54.419Z,18.15
2022-07-26T01:06:25.318Z,18.12
2022-07-26T01:08:53.706Z,18.14
2022-07-26T01:11:20.107Z,18.03
2022-07-26T01:13:50.493Z,18.02
2022-07-26T01:16:17.648Z,17.97
2022-07-26T01:18:44.521Z,18.01
2022-07-26T01:23:41.172Z,18.07
2022-07-26T01:26:08.203Z,18.03
2022-07-26T01:28:40.434Z,18.06
2022-07-26T01:31:07.955Z,18.01
2022-07-26T01:33:34.943Z,18.11
2022-07-26T01:36:01.793Z,18.05
2022-07-26T01:38:28.429Z,18.06
2022-07-26T01:40:54.986Z,18.10
2022-07-26T01:43:21.422Z,18.11
2022-07-26T01:53:07.000Z,18.14
2022-07-26T01:55:34.436Z,18.10
2022-07-26T02:00:27.333Z,18.06
2022-07-26T02:05:20.275Z,18.07
2022-07-26T02:07:46.679Z,18.13
2022-07-26T02:10:14.649Z,18.04
2022-07-26T02:12:41.711Z,18.01
2022-07-26T02:15:10.056Z,18.18
2022-07-26T02:17:36.480Z,18.10
2022-07-26T02:20:03.889Z,18.12
2022-07-26T02:22:30.441Z,18.06
2022-07-26T02:27:28.083Z,18.05
2022-07-26T02:29:54.433Z,18.01
2022-07-26T02:32:20.801Z,18.08
2022-07-26T02:37:13.598Z,17.98
2022-07-26T02:39:40.079Z,17.95
2022-07-26T02:42:06.528Z,17.96
2022-07-26T02:44:34.743Z,17.93
2022-07-26T02:47:02.228Z,17.96
2022-07-26T02:51:54.902Z,18.02
2022-07-26T02:59:13.917Z,17.85
2022-07-26T03:01:40.445Z,17.85
2022-07-26T03:04:09.772Z,17.86
2022-07-26T03:06:36.485Z,17.84
2022-07-26T03:09:03.123Z,17.80
2022-07-26T03:11:29.640Z,17.72
2022-07-26T03:13:56.006Z,17.72
2022-07-26T03:16:26.093Z,17.76
2022-07-26T03:18:55.698Z,17.74
2022-07-26T03:21:22.191Z,17.70
2022-07-26T03:23:48.650Z,17.73
2022-07-26T03:28:42.538Z,17.64
2022-07-26T03:31:09.058Z,17.67
2022-07-26T03:33:35.529Z,17.61
2022-07-26T03:36:02.001Z,17.54
2022-07-26T03:40:54.819Z,17.35
2022-07-26T03:45:50.273Z,17.17
2022-07-26T03:50:43.099Z,17.01
2022-07-26T03:53:09.497Z,16.96
2022-07-26T03:55:54.657Z,17.00
2022-07-26T03:58:22.162Z,17.03
2022-07-26T04:00:48.582Z,16.85
2022-07-26T04:03:15.049Z,16.74
2022-07-26T04:05:41.415Z,16.69
2022-07-26T04:08:15.464Z,16.62
2022-07-26T04:10:45.706Z,16.63
2022-07-26T04:13:12.068Z,16.58
2022-07-26T04:15:38.408Z,16.61
2022-07-26T04:18:04.862Z,16.55
2022-07-26T04:20:31.210Z,16.52
2022-07-26T04:22:57.584Z,16.54
2022-07-26T04:25:24.170Z,16.54
2022-07-26T04:27:50.536Z,16.60
2022-07-26T04:35:13.481Z,16.47
2022-07-26T04:37:42.550Z,16.47
2022-07-26T04:40:10.672Z,16.48
2022-07-26T04:42:39.343Z,16.53
2022-07-26T04:45:08.590Z,16.50
2022-07-26T04:50:03.827Z,16.55
2022-07-26T04:52:30.225Z,16.46
2022-07-26T04:54:56.581Z,16.47
2022-07-26T04:57:23.479Z,16.45
2022-07-26T05:00:03.347Z,16.50
2022-07-26T05:02:36.631Z,16.39
2022-07-26T05:05:04.929Z,16.44
2022-07-26T05:07:48.390Z,16.36
2022-07-26T05:10:16.377Z,16.34
2022-07-26T05:12:43.042Z,16.48
2022-07-26T05:15:13.774Z,16.49
2022-07-26T05:17:43.088Z,16.43
2022-07-26T05:20:13.724Z,16.47
2022-07-26T05:25:07.205Z,16.61
2022-07-26T05:27:34.035Z,16.50
2022-07-26T05:30:00.656Z,16.52
2022-07-26T05:32:28.093Z,16.49
2022-07-26T05:37:21.060Z,16.60
2022-07-26T05:39:47.545Z,16.61
2022-07-26T05:42:13.964Z,16.60
2022-07-26T05:44:42.517Z,16.67
2022-07-26T05:47:09.914Z,16.66
2022-07-26T05:49:40.059Z,16.70
2022-07-26T05:52:08.001Z,16.69
2022-07-26T05:54:34.570Z,16.69
2022-07-26T05:57:00.945Z,16.75
2022-07-26T05:59:27.666Z,16.83
2022-07-26T06:04:25.961Z,16.87
2022-07-26T06:06:54.437Z,16.90
2022-07-26T06:14:14.467Z,16.97
2022-07-26T06:16:41.334Z,17.03
2022-07-26T06:19:07.807Z,17.01
2022-07-26T06:21:34.169Z,17.13
2022-07-26T06:24:00.552Z,17.18
2022-07-26T06:26:26.920Z,17.22
2022-07-26T06:28:53.315Z,17.23
2022-07-26T06:31:19.755Z,17.25
2022-07-26T06:33:46.426Z,17.39
2022-07-26T06:36:12.889Z,17.38
2022-07-26T06:38:39.285Z,17.43
2022-07-26T06:41:05.837Z,17.44
2022-07-26T06:43:32.273Z,17.40
2022-07-26T06:45:58.696Z,17.36
2022-07-26T06:50:51.647Z,17.33
2022-07-26T06:53:18.098Z,17.29
2022-07-26T06:58:12.427Z,17.48
2022-07-26T07:00:38.945Z,17.50
2022-07-26T07:03:05.410Z,17.69
2022-07-26T07:10:25.469Z,17.94
2022-07-26T07:12:51.847Z,18.05
2022-07-26T07:15:18.269Z,18.03
2022-07-26T07:17:45.245Z,18.03
2022-07-26T07:20:12.994Z,18.07
2022-07-26T07:22:39.404Z,18.08
2022-07-26T07:25:06.285Z,18.19
2022-07-26T07:27:33.126Z,18.09
2022-07-26T07:29:59.752Z,18.09
2022-07-26T07:32:26.382Z,18.09
2022-07-26T07:34:52.978Z,18.23
2022-07-26T07:42:18.167Z,18.70
2022-07-26T07:44:44.619Z,18.73
2022-07-26T07:47:11.194Z,18.82
2022-07-26T07:54:30.584Z,18.96
2022-07-26T07:59:24.241Z,18.93
2022-07-26T08:04:17.236Z,18.90
2022-07-26T08:21:30.591Z,19.42
2022-07-26T08:23:57.858Z,19.32
2022-07-26T08:26:24.682Z,19.20
2022-07-26T08:28:59.626Z,19.22
2022-07-26T08:31:28.154Z,19.08
2022-07-26T08:33:55.800Z,19.12
2022-07-26T08:36:22.269Z,19.07
2022-07-26T08:41:17.375Z,19.09
2022-07-26T08:43:51.052Z,19.10
2022-07-26T08:46:25.369Z,19.09
2022-07-26T08:48:53.085Z,19.14
2022-07-26T08:51:22.493Z,19.28
2022-07-26T08:53:50.178Z,19.56
2022-07-26T08:56:16.534Z,19.78
2022-07-26T08:58:43.770Z,19.70
2022-07-26T09:01:12.849Z,19.55
2022-07-26T09:03:40.741Z,19.41
2022-07-26T09:06:14.906Z,19.30
2022-07-26T09:08:42.111Z,19.23
2022-07-26T09:13:51.897Z,19.09
2022-07-26T09:16:18.981Z,19.12
2022-07-26T09:21:30.922Z,19.16
2022-07-26T09:23:58.530Z,19.12
2022-07-26T09:29:12.887Z,19.12
2022-07-26T09:31:39.951Z,19.31
2022-07-26T09:34:07.377Z,19.45
2022-07-26T09:36:51.166Z,19.71
2022-07-26T09:42:04.822Z,20.22
2022-07-26T09:49:41.993Z,20.76
2022-07-26T09:59:34.490Z,20.74
2022-07-26T10:02:01.218Z,20.73
2022-07-26T10:04:27.666Z,20.80
2022-07-26T10:06:54.353Z,20.73
2022-07-26T10:09:22.843Z,20.72
2022-07-26T10:14:45.702Z,20.13
2022-07-26T10:17:31.479Z,19.82
2022-07-26T10:22:33.929Z,19.32
2022-07-26T10:25:18.631Z,19.24
2022-07-26T10:27:50.738Z,19.02
2022-07-26T10:30:17.070Z,18.83
2022-07-26T10:33:03.829Z,18.71
2022-07-26T10:35:36.268Z,18.69
2022-07-26T10:38:08.461Z,18.48
2022-07-26T10:40:35.969Z,18.42
2022-07-26T10:48:59.766Z,18.01
2022-07-26T10:54:09.392Z,17.86
2022-07-26T10:59:03.599Z,17.73
2022-07-26T11:01:34.849Z,17.76
2022-07-26T11:04:01.468Z,17.88
2022-07-26T11:08:56.162Z,18.05
2022-07-26T11:16:41.256Z,18.10
2022-07-26T11:19:24.484Z,18.24
2022-07-26T11:21:55.936Z,18.52
2022-07-26T11:24:22.540Z,18.49
2022-07-26T11:29:17.496Z,18.67
2022-07-26T11:31:50.673Z,18.72
2022-07-26T11:34:28.511Z,18.80
2022-07-26T11:36:57.320Z,18.82
2022-07-26T11:39:29.703Z,18.87
2022-07-26T11:46:53.926Z,18.95
2022-07-26T11:52:02.289Z,19.17
2022-07-26T11:54:31.297Z,19.10
2022-07-26T11:57:00.406Z,19.14
2022-07-26T12:01:58.531Z,19.14
2022-07-26T12:06:55.144Z,19.62
2022-07-26T12:09:41.516Z,19.67
2022-07-26T12:14:38.512Z,19.56
2022-07-26T12:17:15.500Z,19.41
2022-07-26T12:19:43.200Z,19.42
2022-07-26T12:27:22.008Z,19.70
2022-07-26T12:30:13.211Z,19.82
2022-07-26T12:35:14.029Z,20.02
2022-07-26T12:37:46.407Z,20.00
2022-07-26T12:40:15.936Z,19.95
2022-07-26T12:42:44.756Z,19.93
2022-07-26T12:59:58.153Z,19.93
2022-07-26T13:02:25.555Z,19.82
2022-07-26T13:07:26.207Z,19.79
2022-07-26T13:10:21.497Z,19.70
2022-07-26T13:12:40.205Z,19.65
2022-07-26T13:19:59.642Z,19.80
2022-07-26T13:22:26.042Z,19.88
2022-07-26T13:27:20.234Z,20.10
2022-07-26T13:29:46.608Z,20.18
2022-07-26T13:37:08.091Z,20.45
2022-07-26T13:39:35.041Z,20.39
2022-07-26T13:46:54.107Z,20.25
2022-07-26T13:49:20.569Z,20.19
2022-07-26T13:51:59.309Z,20.21
2022-07-26T13:56:54.385Z,20.22
2022-07-26T13:59:20.811Z,20.15
2022-07-26T14:06:41.841Z,20.15
2022-07-26T14:09:11.036Z,20.14
2022-07-26T14:11:38.404Z,20.10
2022-07-26T14:21:29.588Z,20.03
2022-07-26T14:29:03.773Z,20.01
2022-07-26T14:36:25.372Z,20.05
2022-07-26T14:38:51.858Z,20.05
2022-07-26T14:43:45.249Z,19.67
2022-07-26T14:48:54.144Z,19.53
2022-07-26T14:51:21.545Z,19.56
2022-07-26T14:56:14.514Z,19.43
2022-07-26T14:58:40.949Z,19.37
2022-07-26T15:01:07.639Z,19.31
2022-07-26T15:03:34.227Z,19.27
2022-07-26T15:06:00.642Z,19.32
2022-07-26T15:08:27.080Z,19.33
2022-07-26T15:13:19.951Z,19.26
2022-07-26T15:15:46.329Z,19.24
2022-07-26T15:18:12.716Z,19.21
2022-07-26T15:23:07.944Z,19.17
2022-07-26T15:32:56.474Z,19.35
2022-07-26T15:40:16.045Z,19.61
2022-07-26T15:45:12.000Z,19.65
2022-07-26T15:48:00.061Z,19.61
2022-07-26T15:52:52.784Z,19.56
2022-07-26T15:57:46.467Z,19.57
2022-07-26T16:00:13.855Z,19.46
2022-07-26T16:07:34.348Z,19.12
2022-07-26T16:10:01.526Z,19.18
2022-07-26T16:12:29.252Z,19.14
2022-07-26T16:17:21.950Z,19.05
2022-07-26T16:19:48.667Z,19.05
2022-07-26T16:22:15.167Z,19.08
2022-07-26T16:27:07.822Z,18.89
2022-07-26T16:29:34.239Z,18.75
2022-07-26T16:34:28.261Z,18.49
2022-07-26T16:41:47.255Z,18.13
2022-07-26T16:46:40.018Z,17.97
2022-07-26T16:49:06.495Z,17.92
2022-07-26T16:51:32.979Z,17.93
2022-07-26T16:53:59.504Z,17.91
2022-07-26T16:56:25.910Z,17.88
2022-07-26T17:06:11.738Z,17.91
2022-07-26T17:08:38.331Z,17.96
2022-07-26T17:11:04.736Z,17.99
2022-07-26T17:13:31.170Z,18.02
2022-07-26T17:15:57.676Z,18.06
2022-07-26T17:18:24.193Z,18.06
2022-07-26T17:20:50.739Z,18.06
2022-07-26T17:25:45.412Z,18.10
2022-07-26T17:33:04.830Z,18.12
2022-07-26T17:35:31.504Z,18.17
2022-07-26T17:37:57.899Z,18.17
2022-07-26T17:40:25.840Z,18.19
2022-07-26T17:42:53.384Z,18.20
2022-07-26T17:45:19.858Z,18.24
2022-07-26T17:55:25.842Z,18.18
2022-07-26T17:57:52.576Z,18.18
2022-07-26T18:00:21.437Z,18.18
2022-07-26T18:07:41.304Z,18.16
2022-07-26T18:15:00.605Z,18.12
2022-07-26T18:19:53.286Z,18.10
2022-07-26T18:22:19.647Z,18.10
2022-07-26T18:24:46.312Z,18.09
2022-07-26T18:29:39.065Z,18.07
2022-07-26T18:32:05.872Z,18.03
2022-07-26T18:34:32.293Z,18.03
2022-07-26T18:39:25.111Z,18.02
2022-07-26T18:44:25.444Z,18.00
2022-07-26T18:49:20.068Z,18.03
2022-07-26T18:51:48.471Z,18.01
2022-07-26T18:54:15.855Z,17.98
2022-07-26T18:59:09.036Z,17.95
2022-07-26T19:01:35.728Z,17.86
2022-07-26T19:06:34.590Z,17.83
2022-07-26T19:09:01.238Z,17.81
2022-07-26T19:16:22.188Z,17.75
2022-07-26T19:23:45.568Z,17.74
2022-07-26T19:26:11.924Z,17.67
2022-07-26T19:28:38.305Z,17.61
2022-07-26T19:33:31.213Z,17.61
2022-07-26T19:35:58.938Z,17.58
2022-07-26T19:38:25.452Z,17.51
2022-07-26T19:43:19.205Z,17.53
2022-07-26T19:45:48.063Z,17.55
2022-07-26T19:48:14.428Z,17.57
2022-07-26T19:50:41.193Z,17.48
2022-07-26T19:55:33.832Z,17.44
2022-07-26T19:58:00.177Z,17.39
2022-07-26T20:02:54.412Z,17.37
2022-07-26T20:10:15.244Z,17.29
2022-07-26T20:12:42.589Z,17.28
2022-07-26T20:17:38.979Z,17.37
2022-07-26T20:20:07.498Z,17.28
2022-07-26T20:27:26.739Z,17.08
2022-07-26T20:34:53.254Z,17.01
2022-07-26T20:37:19.665Z,17.00
2022-07-26T20:39:46.831Z,16.85
2022-07-26T20:42:21.551Z,16.79
2022-07-26T20:44:48.663Z,16.80
2022-07-26T20:47:15.130Z,16.83
2022-07-26T20:49:41.518Z,16.75
2022-07-26T20:52:08.110Z,16.74
2022-07-26T20:54:34.572Z,16.72
2022-07-26T20:57:00.948Z,16.63
2022-07-26T21:01:58.631Z,16.56
2022-07-26T21:04:25.014Z,16.53
2022-07-26T21:06:51.414Z,16.50
2022-07-26T21:09:19.096Z,16.42
2022-07-26T21:14:12.005Z,16.43
2022-07-26T21:16:38.499Z,16.47
2022-07-26T21:19:05.906Z,16.36
2022-07-26T21:21:33.967Z,16.35
2022-07-26T21:24:00.329Z,16.36
2022-07-26T21:26:26.804Z,16.30
2022-07-26T21:28:53.179Z,16.32
2022-07-26T21:33:47.384Z,16.18
2022-07-26T21:38:41.480Z,16.18
2022-07-26T21:41:07.852Z,16.13
2022-07-26T21:43:34.436Z,16.16
2022-07-26T21:46:00.850Z,16.09
2022-07-26T21:48:27.673Z,16.08
2022-07-26T21:50:54.061Z,16.06
2022-07-26T21:53:20.443Z,16.00
2022-07-26T21:55:46.896Z,16.01
2022-07-26T21:58:13.305Z,16.12
2022-07-26T22:00:39.813Z,15.95
2022-07-26T22:03:07.269Z,16.02
2022-07-26T22:05:39.712Z,15.93
2022-07-26T22:08:08.251Z,15.91
2022-07-26T22:10:35.415Z,15.93
2022-07-26T22:13:11.096Z,15.92
2022-07-26T22:18:03.954Z,15.87
2022-07-26T22:20:31.933Z,15.89
2022-07-26T22:25:27.354Z,15.78
2022-07-26T22:32:47.171Z,15.62
2022-07-26T22:35:13.577Z,15.66
2022-07-26T22:37:40.052Z,15.55
2022-07-26T22:40:07.018Z,15.52
2022-07-26T22:44:59.717Z,15.45
2022-07-26T22:47:26.367Z,15.50
2022-07-26T22:49:52.824Z,15.54
2022-07-26T22:52:19.360Z,15.42
2022-07-26T22:57:12.020Z,15.44
2022-07-26T22:59:38.520Z,15.37
2022-07-26T23:02:04.908Z,15.40
2022-07-26T23:04:31.294Z,15.33
2022-07-26T23:06:57.639Z,15.28
2022-07-26T23:09:25.064Z,15.24
2022-07-26T23:11:51.428Z,15.26
2022-07-26T23:16:45.080Z,15.20
2022-07-26T23:19:11.885Z,15.20
2022-07-26T23:21:38.565Z,15.17
2022-07-26T23:24:05.149Z,15.15
2022-07-26T23:26:31.748Z,15.13
2022-07-26T23:28:58.126Z,15.10
2022-07-26T23:33:54.453Z,15.05
2022-07-26T23:38:48.397Z,14.99
2022-07-26T23:41:14.776Z,14.95
2022-07-26T23:43:41.189Z,14.96
2022-07-26T23:46:07.587Z,14.93
2022-07-26T23:48:34.030Z,14.90
2022-07-26T23:51:00.581Z,14.90
2022-07-26T23:53:27.346Z,14.91
